sensor_id;sensor_type;location;lat;lon;timestamp;pressure;altitude;pressure_sealevel;temperature;humidity
10127;BME280;13080;42.608;23.362;2023-02-10T00:02:24;148907.53;;;-8.79;80.86
10127;BME280;13080;42.608;23.362;2023-02-10T00:04:51;148902.44;;;-8.81;81.42
10127;BME280;13080;42.608;23.362;2023-02-10T00:07:17;148897.31;;;-8.83;83.06
10127;BME280;13080;42.608;23.362;2023-02-10T00:09:44;148878.13;;;-8.90;81.90
10127;BME280;13080;42.608;23.362;2023-02-10T00:12:12;148870.47;;;-8.93;82.54
10127;BME280;13080;42.608;23.362;2023-02-10T00:14:39;148870.47;;;-8.93;82.78
10127;BME280;13080;42.608;23.362;2023-02-10T00:17:05;148850.00;;;-9.02;82.86
10127;BME280;13080;42.608;23.362;2023-02-10T00:19:32;148842.38;;;-9.05;83.00
10127;BME280;13080;42.608;23.362;2023-02-10T00:21:59;148837.25;;;-9.07;83.27
10127;BME280;13080;42.608;23.362;2023-02-10T00:24:26;148841.09;;;-9.05;83.03
10127;BME280;13080;42.608;23.362;2023-02-10T00:26:53;148844.91;;;-9.04;81.19
10127;BME280;13080;42.608;23.362;2023-02-10T00:29:20;148842.38;;;-9.05;82.23
10127;BME280;13080;42.608;23.362;2023-02-10T00:31:47;148827.03;;;-9.11;82.50
10127;BME280;13080;42.608;23.362;2023-02-10T00:34:14;148819.38;;;-9.14;82.46
10127;BME280;13080;42.608;23.362;2023-02-10T00:36:42;148844.91;;;-9.04;79.66
10127;BME280;13080;42.608;23.362;2023-02-10T00:39:12;148853.88;;;-9.00;79.11
10127;BME280;13080;42.608;23.362;2023-02-10T00:41:39;148864.09;;;-8.96;80.05
10127;BME280;13080;42.608;23.362;2023-02-10T00:44:06;148855.13;;;-9.00;79.74
10127;BME280;13080;42.608;23.362;2023-02-10T00:46:35;148855.13;;;-9.00;79.63
10127;BME280;13080;42.608;23.362;2023-02-10T00:49:01;148865.34;;;-8.95;79.67
10127;BME280;13080;42.608;23.362;2023-02-10T00:51:28;148861.50;;;-8.97;79.75
10127;BME280;13080;42.608;23.362;2023-02-10T00:53:55;148888.34;;;-8.86;78.67
10127;BME280;13080;42.608;23.362;2023-02-10T00:56:21;148875.59;;;-8.91;79.26
10127;BME280;13080;42.608;23.362;2023-02-10T00:58:48;148888.34;;;-8.86;79.26
10127;BME280;13080;42.608;23.362;2023-02-10T01:01:15;148885.81;;;-8.87;79.11
10127;BME280;13080;42.608;23.362;2023-02-10T01:03:43;148884.50;;;-8.88;78.80
10127;BME280;13080;42.608;23.362;2023-02-10T01:06:13;148878.13;;;-8.90;79.24
10127;BME280;13080;42.608;23.362;2023-02-10T01:08:41;148871.75;;;-8.93;79.04
10127;BME280;13080;42.608;23.362;2023-02-10T01:11:09;148888.34;;;-8.86;79.52
10127;BME280;13080;42.608;23.362;2023-02-10T01:13:37;148894.72;;;-8.84;78.99
10127;BME280;13080;42.608;23.362;2023-02-10T01:16:04;148908.81;;;-8.78;79.04
10127;BME280;13080;42.608;23.362;2023-02-10T01:18:34;148902.44;;;-8.81;79.06
10127;BME280;13080;42.608;23.362;2023-02-10T01:21:06;148902.44;;;-8.81;78.60
10127;BME280;13080;42.608;23.362;2023-02-10T01:23:33;148899.84;;;-8.82;79.40
10127;BME280;13080;42.608;23.362;2023-02-10T01:25:59;148903.69;;;-8.80;79.27
10127;BME280;13080;42.608;23.362;2023-02-10T01:28:26;148902.44;;;-8.81;78.72
10127;BME280;13080;42.608;23.362;2023-02-10T01:30:53;148899.84;;;-8.82;78.20
10127;BME280;13080;42.608;23.362;2023-02-10T01:33:19;148888.34;;;-8.86;78.24
10127;BME280;13080;42.608;23.362;2023-02-10T01:35:46;148887.06;;;-8.87;79.32
10127;BME280;13080;42.608;23.362;2023-02-10T01:38:14;148880.69;;;-8.89;80.00
10127;BME280;13080;42.608;23.362;2023-02-10T01:40:41;148875.59;;;-8.91;80.42
10127;BME280;13080;42.608;23.362;2023-02-10T01:43:09;148864.09;;;-8.96;80.48
10127;BME280;13080;42.608;23.362;2023-02-10T01:45:39;148853.88;;;-9.00;80.69
10127;BME280;13080;42.608;23.362;2023-02-10T01:48:06;148844.91;;;-9.04;81.37
10127;BME280;13080;42.608;23.362;2023-02-10T01:50:38;148830.88;;;-9.09;81.58
10127;BME280;13080;42.608;23.362;2023-02-10T01:53:07;148834.72;;;-9.08;81.94
10127;BME280;13080;42.608;23.362;2023-02-10T01:55:39;148830.88;;;-9.09;81.89
10127;BME280;13080;42.608;23.362;2023-02-10T01:58:09;148838.53;;;-9.06;81.20
10127;BME280;13080;42.608;23.362;2023-02-10T02:00:56;148847.47;;;-9.03;80.99
10127;BME280;13080;42.608;23.362;2023-02-10T02:03:22;148852.59;;;-9.01;80.80
10127;BME280;13080;42.608;23.362;2023-02-10T02:05:49;148870.47;;;-8.93;80.62
10127;BME280;13080;42.608;23.362;2023-02-10T02:08:18;148879.44;;;-8.90;80.73
10127;BME280;13080;42.608;23.362;2023-02-10T02:11:07;148897.31;;;-8.83;80.44
10127;BME280;13080;42.608;23.362;2023-02-10T02:14:01;148885.81;;;-8.87;80.48
10127;BME280;13080;42.608;23.362;2023-02-10T02:16:41;148878.13;;;-8.90;80.15
10127;BME280;13080;42.608;23.362;2023-02-10T02:19:31;148885.81;;;-8.87;79.57
10127;BME280;13080;42.608;23.362;2023-02-10T02:22:33;148874.31;;;-8.92;80.45
10127;BME280;13080;42.608;23.362;2023-02-10T02:25:20;148850.00;;;-9.02;80.80
10127;BME280;13080;42.608;23.362;2023-02-10T02:28:01;148836.00;;;-9.07;81.05
10127;BME280;13080;42.608;23.362;2023-02-10T02:30:45;148806.63;;;-9.19;80.66
10127;BME280;13080;42.608;23.362;2023-02-10T02:33:21;148795.09;;;-9.24;82.01
10127;BME280;13080;42.608;23.362;2023-02-10T02:35:53;148809.16;;;-9.18;81.95
10127;BME280;13080;42.608;23.362;2023-02-10T02:38:21;148778.53;;;-9.30;81.75
10127;BME280;13080;42.608;23.362;2023-02-10T02:40:49;148777.22;;;-9.31;82.21
10127;BME280;13080;42.608;23.362;2023-02-10T02:43:16;148738.91;;;-9.46;82.37
10127;BME280;13080;42.608;23.362;2023-02-10T02:45:49;148708.28;;;-9.58;83.43
10127;BME280;13080;42.608;23.362;2023-02-10T02:48:33;148699.31;;;-9.62;84.04
10127;BME280;13080;42.608;23.362;2023-02-10T02:51:05;148694.22;;;-9.64;84.26
10127;BME280;13080;42.608;23.362;2023-02-10T02:53:38;148690.41;;;-9.66;84.38
10127;BME280;13080;42.608;23.362;2023-02-10T02:56:15;148682.72;;;-9.69;84.93
10127;BME280;13080;42.608;23.362;2023-02-10T02:58:50;148671.25;;;-9.73;85.94
10127;BME280;13080;42.608;23.362;2023-02-10T03:01:23;148675.09;;;-9.72;86.12
10127;BME280;13080;42.608;23.362;2023-02-10T03:03:54;148669.97;;;-9.74;86.65
10127;BME280;13080;42.608;23.362;2023-02-10T03:06:21;148669.97;;;-9.74;86.77
10127;BME280;13080;42.608;23.362;2023-02-10T03:08:48;148657.22;;;-9.79;86.83
10127;BME280;13080;42.608;23.362;2023-02-10T03:11:15;148643.16;;;-9.85;87.95
10127;BME280;13080;42.608;23.362;2023-02-10T03:13:42;148639.38;;;-9.86;87.99
10127;BME280;13080;42.608;23.362;2023-02-10T03:16:09;148640.63;;;-9.86;88.96
10127;BME280;13080;42.608;23.362;2023-02-10T03:18:35;148635.53;;;-9.88;88.61
10127;BME280;13080;42.608;23.362;2023-02-10T03:21:03;148632.94;;;-9.89;88.90
10127;BME280;13080;42.608;23.362;2023-02-10T03:23:30;148618.94;;;-9.94;89.21
10127;BME280;13080;42.608;23.362;2023-02-10T03:25:57;148616.34;;;-9.95;89.52
10127;BME280;13080;42.608;23.362;2023-02-10T03:28:24;148611.28;;;-9.97;89.61
10127;BME280;13080;42.608;23.362;2023-02-10T03:30:51;148584.47;;;-10.08;90.00
10127;BME280;13080;42.608;23.362;2023-02-10T03:33:19;148584.47;;;-10.08;90.27
10127;BME280;13080;42.608;23.362;2023-02-10T03:35:45;148567.88;;;-10.15;90.63
10127;BME280;13080;42.608;23.362;2023-02-10T03:38:13;148571.69;;;-10.13;91.29
10127;BME280;13080;42.608;23.362;2023-02-10T03:40:40;148567.88;;;-10.15;91.00
10127;BME280;13080;42.608;23.362;2023-02-10T03:43:07;148583.22;;;-10.09;91.59
10127;BME280;13080;42.608;23.362;2023-02-10T03:45:34;148561.50;;;-10.17;91.07
10127;BME280;13080;42.608;23.362;2023-02-10T03:48:01;148569.16;;;-10.14;91.25
10127;BME280;13080;42.608;23.362;2023-02-10T03:50:28;148561.50;;;-10.17;91.70
10127;BME280;13080;42.608;23.362;2023-02-10T03:52:55;148561.50;;;-10.17;91.57
10127;BME280;13080;42.608;23.362;2023-02-10T03:55:23;148544.94;;;-10.24;91.76
10127;BME280;13080;42.608;23.362;2023-02-10T03:57:50;148542.34;;;-10.25;91.17
10127;BME280;13080;42.608;23.362;2023-02-10T04:00:17;148541.09;;;-10.26;91.59
10127;BME280;13080;42.608;23.362;2023-02-10T04:02:44;148525.81;;;-10.32;91.31
10127;BME280;13080;42.608;23.362;2023-02-10T04:05:10;148518.19;;;-10.35;91.25
10127;BME280;13080;42.608;23.362;2023-02-10T04:07:37;148525.81;;;-10.32;91.23
10127;BME280;13080;42.608;23.362;2023-02-10T04:10:04;148524.53;;;-10.32;92.04
10127;BME280;13080;42.608;23.362;2023-02-10T04:12:32;148514.31;;;-10.36;91.13
10127;BME280;13080;42.608;23.362;2023-02-10T04:14:59;148510.53;;;-10.38;91.06
10127;BME280;13080;42.608;23.362;2023-02-10T04:17:26;148507.97;;;-10.39;91.31
10127;BME280;13080;42.608;23.362;2023-02-10T04:19:52;148501.59;;;-10.41;90.14
10127;BME280;13080;42.608;23.362;2023-02-10T04:22:19;148497.75;;;-10.43;90.21
10127;BME280;13080;42.608;23.362;2023-02-10T04:24:46;148478.63;;;-10.51;89.35
10127;BME280;13080;42.608;23.362;2023-02-10T04:27:12;148472.25;;;-10.53;89.30
10127;BME280;13080;42.608;23.362;2023-02-10T04:29:41;148467.16;;;-10.55;89.42
10127;BME280;13080;42.608;23.362;2023-02-10T04:32:07;148456.94;;;-10.59;89.41
10127;BME280;13080;42.608;23.362;2023-02-10T04:34:34;148453.09;;;-10.61;89.62
10127;BME280;13080;42.608;23.362;2023-02-10T04:37:01;148451.84;;;-10.61;90.22
10127;BME280;13080;42.608;23.362;2023-02-10T04:39:28;148449.31;;;-10.62;90.03
10127;BME280;13080;42.608;23.362;2023-02-10T04:41:54;148445.47;;;-10.64;90.10
10127;BME280;13080;42.608;23.362;2023-02-10T04:44:21;148434.00;;;-10.69;90.40
10127;BME280;13080;42.608;23.362;2023-02-10T04:46:49;148428.88;;;-10.71;90.42
10127;BME280;13080;42.608;23.362;2023-02-10T04:49:16;148430.16;;;-10.70;90.87
10127;BME280;13080;42.608;23.362;2023-02-10T04:51:43;148439.09;;;-10.67;91.27
10127;BME280;13080;42.608;23.362;2023-02-10T04:54:10;148434.00;;;-10.69;91.40
10127;BME280;13080;42.608;23.362;2023-02-10T04:56:36;148430.16;;;-10.70;91.42
10127;BME280;13080;42.608;23.362;2023-02-10T04:59:03;148432.72;;;-10.69;92.15
10127;BME280;13080;42.608;23.362;2023-02-10T05:01:30;148430.16;;;-10.70;91.95
10127;BME280;13080;42.608;23.362;2023-02-10T05:03:58;148422.50;;;-10.73;92.36
10127;BME280;13080;42.608;23.362;2023-02-10T05:06:24;148411.03;;;-10.78;92.27
10127;BME280;13080;42.608;23.362;2023-02-10T05:08:51;148414.84;;;-10.76;92.89
10127;BME280;13080;42.608;23.362;2023-02-10T05:11:18;148411.03;;;-10.78;93.27
10127;BME280;13080;42.608;23.362;2023-02-10T05:13:45;148416.16;;;-10.76;92.77
10127;BME280;13080;42.608;23.362;2023-02-10T05:16:12;148422.50;;;-10.73;92.63
10127;BME280;13080;42.608;23.362;2023-02-10T05:18:39;148418.66;;;-10.75;92.07
10127;BME280;13080;42.608;23.362;2023-02-10T05:21:08;148411.03;;;-10.78;93.00
10127;BME280;13080;42.608;23.362;2023-02-10T05:23:36;148407.19;;;-10.79;92.43
10127;BME280;13080;42.608;23.362;2023-02-10T05:26:02;148411.03;;;-10.78;92.79
10127;BME280;13080;42.608;23.362;2023-02-10T05:28:30;148407.19;;;-10.79;92.53
10127;BME280;13080;42.608;23.362;2023-02-10T05:30:57;148412.31;;;-10.77;92.54
10127;BME280;13080;42.608;23.362;2023-02-10T05:33:23;148412.31;;;-10.77;91.73
10127;BME280;13080;42.608;23.362;2023-02-10T05:35:50;148405.94;;;-10.80;91.67
10127;BME280;13080;42.608;23.362;2023-02-10T05:38:18;148402.09;;;-10.81;91.86
10127;BME280;13080;42.608;23.362;2023-02-10T05:40:45;148390.63;;;-10.86;92.47
10127;BME280;13080;42.608;23.362;2023-02-10T05:43:11;148388.09;;;-10.87;92.29
10127;BME280;13080;42.608;23.362;2023-02-10T05:45:38;148383.00;;;-10.89;92.25
10127;BME280;13080;42.608;23.362;2023-02-10T05:48:07;148390.63;;;-10.86;92.79
10127;BME280;13080;42.608;23.362;2023-02-10T05:50:34;148390.63;;;-10.86;92.35
10127;BME280;13080;42.608;23.362;2023-02-10T05:53:00;148411.03;;;-10.78;92.73
10127;BME280;13080;42.608;23.362;2023-02-10T05:55:28;148423.78;;;-10.73;92.82
10127;BME280;13080;42.608;23.362;2023-02-10T05:57:55;148423.78;;;-10.73;93.00
10127;BME280;13080;42.608;23.362;2023-02-10T06:00:22;148430.16;;;-10.70;92.88
10127;BME280;13080;42.608;23.362;2023-02-10T06:02:48;148481.16;;;-10.50;94.87
10127;BME280;13080;42.608;23.362;2023-02-10T06:05:15;148507.97;;;-10.39;95.05
10127;BME280;13080;42.608;23.362;2023-02-10T06:07:42;148502.84;;;-10.41;94.22
10127;BME280;13080;42.608;23.362;2023-02-10T06:10:09;148506.69;;;-10.39;93.00
10127;BME280;13080;42.608;23.362;2023-02-10T06:12:37;148511.81;;;-10.37;92.81
10127;BME280;13080;42.608;23.362;2023-02-10T06:15:04;148518.19;;;-10.35;93.04
10127;BME280;13080;42.608;23.362;2023-02-10T06:17:31;148525.81;;;-10.32;93.68
10127;BME280;13080;42.608;23.362;2023-02-10T06:19:58;148594.69;;;-10.04;98.92
10127;BME280;13080;42.608;23.362;2023-02-10T06:22:24;148594.69;;;-10.04;96.59
10127;BME280;13080;42.608;23.362;2023-02-10T06:24:51;148595.97;;;-10.04;94.33
10127;BME280;13080;42.608;23.362;2023-02-10T06:27:18;148602.34;;;-10.01;94.03
10127;BME280;13080;42.608;23.362;2023-02-10T06:29:46;148615.09;;;-9.96;93.14
10127;BME280;13080;42.608;23.362;2023-02-10T06:32:13;148625.31;;;-9.92;92.86
10127;BME280;13080;42.608;23.362;2023-02-10T06:34:40;148638.06;;;-9.87;92.54
10127;BME280;13080;42.608;23.362;2023-02-10T06:37:06;148652.13;;;-9.81;92.35
10127;BME280;13080;42.608;23.362;2023-02-10T06:39:33;148669.97;;;-9.74;92.15
10127;BME280;13080;42.608;23.362;2023-02-10T06:42:00;148690.41;;;-9.66;90.77
10127;BME280;13080;42.608;23.362;2023-02-10T06:44:26;148747.84;;;-9.43;88.82
10127;BME280;13080;42.608;23.362;2023-02-10T06:46:55;148765.72;;;-9.35;87.77
10127;BME280;13080;42.608;23.362;2023-02-10T06:49:21;148761.94;;;-9.37;88.45
10127;BME280;13080;42.608;23.362;2023-02-10T06:51:48;148760.63;;;-9.37;88.54
10127;BME280;13080;42.608;23.362;2023-02-10T06:54:14;148791.28;;;-9.25;88.42
10127;BME280;13080;42.608;23.362;2023-02-10T06:56:41;148802.78;;;-9.21;88.62
10127;BME280;13080;42.608;23.362;2023-02-10T06:59:11;148816.81;;;-9.15;88.39
10127;BME280;13080;42.608;23.362;2023-02-10T07:01:37;148825.75;;;-9.11;88.57
10127;BME280;13080;42.608;23.362;2023-02-10T07:04:05;148847.47;;;-9.03;88.86
10127;BME280;13080;42.608;23.362;2023-02-10T07:06:32;148873.00;;;-8.92;87.63
10127;BME280;13080;42.608;23.362;2023-02-10T07:08:59;148899.84;;;-8.82;87.38
10127;BME280;13080;42.608;23.362;2023-02-10T07:11:26;148925.41;;;-8.71;86.70
10127;BME280;13080;42.608;23.362;2023-02-10T07:13:52;148948.41;;;-8.62;86.61
10127;BME280;13080;42.608;23.362;2023-02-10T07:16:19;148939.44;;;-8.66;86.16
10127;BME280;13080;42.608;23.362;2023-02-10T07:18:46;148954.78;;;-8.60;86.32
10127;BME280;13080;42.608;23.362;2023-02-10T07:21:14;148979.06;;;-8.50;86.23
10127;BME280;13080;42.608;23.362;2023-02-10T07:23:41;149000.78;;;-8.41;86.20
10127;BME280;13080;42.608;23.362;2023-02-10T07:26:07;149023.75;;;-8.32;85.79
10127;BME280;13080;42.608;23.362;2023-02-10T07:28:36;149058.28;;;-8.18;85.27
10127;BME280;13080;42.608;23.362;2023-02-10T07:31:02;149090.22;;;-8.05;84.88
10127;BME280;13080;42.608;23.362;2023-02-10T07:33:29;149103.03;;;-8.00;83.94
10127;BME280;13080;42.608;23.362;2023-02-10T07:35:58;149136.28;;;-7.87;83.53
10127;BME280;13080;42.608;23.362;2023-02-10T07:38:27;149150.34;;;-7.81;83.61
10127;BME280;13080;42.608;23.362;2023-02-10T07:40:54;149179.72;;;-7.69;81.84
10127;BME280;13080;42.608;23.362;2023-02-10T07:43:21;149229.63;;;-7.49;80.57
10127;BME280;13080;42.608;23.362;2023-02-10T07:45:47;149229.63;;;-7.49;80.99
10127;BME280;13080;42.608;23.362;2023-02-10T07:48:15;149256.50;;;-7.39;80.14
10127;BME280;13080;42.608;23.362;2023-02-10T07:50:42;149250.09;;;-7.41;80.10
10127;BME280;13080;42.608;23.362;2023-02-10T07:53:09;149279.53;;;-7.29;80.21
10127;BME280;13080;42.608;23.362;2023-02-10T07:55:38;149312.78;;;-7.16;79.88
10127;BME280;13080;42.608;23.362;2023-02-10T07:58:05;149324.31;;;-7.12;79.60
10127;BME280;13080;42.608;23.362;2023-02-10T08:00:32;149355.03;;;-6.99;78.49
10127;BME280;13080;42.608;23.362;2023-02-10T08:02:58;149374.22;;;-6.92;77.59
10127;BME280;13080;42.608;23.362;2023-02-10T08:05:25;149401.09;;;-6.81;77.45
10127;BME280;13080;42.608;23.362;2023-02-10T08:07:53;149447.19;;;-6.62;75.59
10127;BME280;13080;42.608;23.362;2023-02-10T08:10:20;149428.00;;;-6.70;76.33
10127;BME280;13080;42.608;23.362;2023-02-10T08:12:48;149462.56;;;-6.56;76.02
10127;BME280;13080;42.608;23.362;2023-02-10T08:15:15;149440.78;;;-6.65;75.74
10127;BME280;13080;42.608;23.362;2023-02-10T08:17:43;149417.75;;;-6.74;77.45
10127;BME280;13080;42.608;23.362;2023-02-10T08:20:10;149433.13;;;-6.68;77.43
10127;BME280;13080;42.608;23.362;2023-02-10T08:22:37;149433.13;;;-6.68;78.70
10127;BME280;13080;42.608;23.362;2023-02-10T08:25:06;149439.50;;;-6.65;79.66
10127;BME280;13080;42.608;23.362;2023-02-10T08:27:33;149474.06;;;-6.52;78.97
10127;BME280;13080;42.608;23.362;2023-02-10T08:30:01;149497.13;;;-6.42;77.59
10127;BME280;13080;42.608;23.362;2023-02-10T08:32:30;149520.16;;;-6.33;77.66
10127;BME280;13080;42.608;23.362;2023-02-10T08:34:57;149588.03;;;-6.06;75.48
10127;BME280;13080;42.608;23.362;2023-02-10T08:37:25;149613.69;;;-5.96;74.79
10127;BME280;13080;42.608;23.362;2023-02-10T08:39:51;149622.56;;;-5.92;74.36
10127;BME280;13080;42.608;23.362;2023-02-10T08:42:18;149634.09;;;-5.88;74.15
10127;BME280;13080;42.608;23.362;2023-02-10T08:44:45;149652.06;;;-5.80;73.92
10127;BME280;13080;42.608;23.362;2023-02-10T08:47:13;149652.06;;;-5.80;74.23
10127;BME280;13080;42.608;23.362;2023-02-10T08:49:40;149680.25;;;-5.69;72.94
10127;BME280;13080;42.608;23.362;2023-02-10T08:52:08;149687.91;;;-5.66;73.22
10127;BME280;13080;42.608;23.362;2023-02-10T08:54:35;149677.66;;;-5.70;72.35
10127;BME280;13080;42.608;23.362;2023-02-10T08:57:02;149682.78;;;-5.68;72.85
10127;BME280;13080;42.608;23.362;2023-02-10T08:59:29;149719.97;;;-5.53;73.47
10127;BME280;13080;42.608;23.362;2023-02-10T09:01:55;149740.44;;;-5.45;73.50
10127;BME280;13080;42.608;23.362;2023-02-10T09:04:24;149776.34;;;-5.31;72.88
10127;BME280;13080;42.608;23.362;2023-02-10T09:06:50;149790.44;;;-5.25;73.01
10127;BME280;13080;42.608;23.362;2023-02-10T09:09:19;149812.22;;;-5.16;72.27
10127;BME280;13080;42.608;23.362;2023-02-10T09:11:48;149848.16;;;-5.02;72.10
10127;BME280;13080;42.608;23.362;2023-02-10T09:14:15;149837.88;;;-5.06;73.30
10127;BME280;13080;42.608;23.362;2023-02-10T09:16:41;149845.56;;;-5.03;72.85
10127;BME280;13080;42.608;23.362;2023-02-10T09:19:08;149877.63;;;-4.90;71.96
10127;BME280;13080;42.608;23.362;2023-02-10T09:21:36;149910.97;;;-4.77;71.09
10127;BME280;13080;42.608;23.362;2023-02-10T09:24:03;149958.41;;;-4.58;70.04
10127;BME280;13080;42.608;23.362;2023-02-10T09:26:30;149963.53;;;-4.56;70.57
10127;BME280;13080;42.608;23.362;2023-02-10T09:28:57;149986.63;;;-4.47;71.95
10127;BME280;13080;42.608;23.362;2023-02-10T09:31:24;149996.91;;;-4.43;70.52
10127;BME280;13080;42.608;23.362;2023-02-10T09:33:51;150054.63;;;-4.20;69.05
10127;BME280;13080;42.608;23.362;2023-02-10T09:36:19;150085.44;;;-4.07;67.61
10127;BME280;13080;42.608;23.362;2023-02-10T09:38:47;150067.47;;;-4.14;67.14
10127;BME280;13080;42.608;23.362;2023-02-10T09:41:24;150028.97;;;-4.30;67.33
10127;BME280;13080;42.608;23.362;2023-02-10T09:44:08;150053.34;;;-4.20;67.71
10127;BME280;13080;42.608;23.362;2023-02-10T09:46:53;150064.88;;;-4.15;67.58
10127;BME280;13080;42.608;23.362;2023-02-10T09:49:49;150098.25;;;-4.02;66.54
10127;BME280;13080;42.608;23.362;2023-02-10T09:52:29;150109.78;;;-3.98;66.29
10127;BME280;13080;42.608;23.362;2023-02-10T09:54:59;150125.22;;;-3.91;66.55
10127;BME280;13080;42.608;23.362;2023-02-10T09:57:34;150125.22;;;-3.91;66.87
10127;BME280;13080;42.608;23.362;2023-02-10T10:00:04;150148.31;;;-3.82;67.38
10127;BME280;13080;42.608;23.362;2023-02-10T10:02:34;150147.03;;;-3.83;68.71
10127;BME280;13080;42.608;23.362;2023-02-10T10:05:12;150148.31;;;-3.82;67.22
10127;BME280;13080;42.608;23.362;2023-02-10T10:07:44;150194.50;;;-3.64;68.17
10127;BME280;13080;42.608;23.362;2023-02-10T10:10:21;150189.38;;;-3.66;67.61
10127;BME280;13080;42.608;23.362;2023-02-10T10:12:51;150202.22;;;-3.61;66.77
10127;BME280;13080;42.608;23.362;2023-02-10T10:15:18;150215.06;;;-3.56;66.00
10127;BME280;13080;42.608;23.362;2023-02-10T10:17:56;150247.16;;;-3.43;64.26
10127;BME280;13080;42.608;23.362;2023-02-10T10:20:46;150271.53;;;-3.33;64.74
10127;BME280;13080;42.608;23.362;2023-02-10T10:23:27;150285.66;;;-3.27;64.31
10127;BME280;13080;42.608;23.362;2023-02-10T10:26:04;150292.09;;;-3.25;66.10
10127;BME280;13080;42.608;23.362;2023-02-10T10:28:49;150292.09;;;-3.25;63.63
10127;BME280;13080;42.608;23.362;2023-02-10T10:31:24;150298.53;;;-3.22;63.87
10127;BME280;13080;42.608;23.362;2023-02-10T10:33:54;150297.25;;;-3.23;62.89
10127;BME280;13080;42.608;23.362;2023-02-10T10:36:29;150328.03;;;-3.10;62.45
10127;BME280;13080;42.608;23.362;2023-02-10T10:39:00;150329.31;;;-3.10;63.31
10127;BME280;13080;42.608;23.362;2023-02-10T10:41:31;150333.19;;;-3.08;64.01
10127;BME280;13080;42.608;23.362;2023-02-10T10:43:59;150376.88;;;-2.91;61.23
10127;BME280;13080;42.608;23.362;2023-02-10T10:46:28;150405.13;;;-2.80;61.01
10127;BME280;13080;42.608;23.362;2023-02-10T10:48:56;150396.13;;;-2.83;61.53
10127;BME280;13080;42.608;23.362;2023-02-10T10:51:28;150406.41;;;-2.79;59.93
10127;BME280;13080;42.608;23.362;2023-02-10T10:53:56;150398.72;;;-2.82;62.24
10127;BME280;13080;42.608;23.362;2023-02-10T10:56:29;150403.84;;;-2.80;62.71
10127;BME280;13080;42.608;23.362;2023-02-10T10:59:06;150435.94;;;-2.67;60.24
10127;BME280;13080;42.608;23.362;2023-02-10T11:01:38;150469.34;;;-2.54;59.29
10127;BME280;13080;42.608;23.362;2023-02-10T11:04:09;150497.63;;;-2.43;58.97
10127;BME280;13080;42.608;23.362;2023-02-10T11:06:38;150491.19;;;-2.45;59.55
10127;BME280;13080;42.608;23.362;2023-02-10T11:09:16;150471.94;;;-2.53;60.29
10127;BME280;13080;42.608;23.362;2023-02-10T11:11:44;150483.50;;;-2.48;61.69
10127;BME280;13080;42.608;23.362;2023-02-10T11:14:15;150500.22;;;-2.42;60.46
10127;BME280;13080;42.608;23.362;2023-02-10T11:16:44;150506.63;;;-2.39;60.49
10127;BME280;13080;42.608;23.362;2023-02-10T11:19:18;150501.47;;;-2.41;60.78
10127;BME280;13080;42.608;23.362;2023-02-10T11:21:45;150559.31;;;-2.18;57.46
10127;BME280;13080;42.608;23.362;2023-02-10T11:24:21;150579.88;;;-2.10;58.19
10127;BME280;13080;42.608;23.362;2023-02-10T11:26:57;150576.00;;;-2.12;57.25
10127;BME280;13080;42.608;23.362;2023-02-10T11:29:26;150574.75;;;-2.12;56.50
10127;BME280;13080;42.608;23.362;2023-02-10T11:31:54;150599.16;;;-2.02;57.22
10127;BME280;13080;42.608;23.362;2023-02-10T11:34:25;150599.16;;;-2.02;57.04
10127;BME280;13080;42.608;23.362;2023-02-10T11:36:54;150606.88;;;-1.99;57.19
10127;BME280;13080;42.608;23.362;2023-02-10T11:39:23;150637.72;;;-1.87;56.47
10127;BME280;13080;42.608;23.362;2023-02-10T11:41:52;150627.44;;;-1.91;57.82
10127;BME280;13080;42.608;23.362;2023-02-10T11:44:27;150678.84;;;-1.71;55.83
10127;BME280;13080;42.608;23.362;2023-02-10T11:46:57;150699.44;;;-1.62;57.85
10127;BME280;13080;42.608;23.362;2023-02-10T11:49:25;150696.91;;;-1.63;55.94
10127;BME280;13080;42.608;23.362;2023-02-10T11:51:56;150700.72;;;-1.62;55.45
10127;BME280;13080;42.608;23.362;2023-02-10T11:54:24;150703.31;;;-1.61;55.13
10127;BME280;13080;42.608;23.362;2023-02-10T11:57:00;150693.03;;;-1.65;56.45
10127;BME280;13080;42.608;23.362;2023-02-10T11:59:56;150713.63;;;-1.57;54.80
10127;BME280;13080;42.608;23.362;2023-02-10T12:02:38;150699.44;;;-1.62;56.89
10127;BME280;13080;42.608;23.362;2023-02-10T12:05:13;150725.19;;;-1.52;56.97
10127;BME280;13080;42.608;23.362;2023-02-10T12:07:58;150729.00;;;-1.51;55.91
10127;BME280;13080;42.608;23.362;2023-02-10T12:10:33;150736.75;;;-1.48;56.97
10127;BME280;13080;42.608;23.362;2023-02-10T12:13:11;150765.06;;;-1.36;55.63
10127;BME280;13080;42.608;23.362;2023-02-10T12:15:49;150756.03;;;-1.40;55.78
10127;BME280;13080;42.608;23.362;2023-02-10T12:18:29;150785.59;;;-1.28;55.87
10127;BME280;13080;42.608;23.362;2023-02-10T12:21:11;150772.75;;;-1.33;58.05
10127;BME280;13080;42.608;23.362;2023-02-10T12:23:51;150808.75;;;-1.19;56.12
10127;BME280;13080;42.608;23.362;2023-02-10T12:26:26;150811.34;;;-1.18;55.92
10127;BME280;13080;42.608;23.362;2023-02-10T12:29:04;150835.78;;;-1.08;53.78
10127;BME280;13080;42.608;23.362;2023-02-10T12:31:41;150846.06;;;-1.04;54.36
10127;BME280;13080;42.608;23.362;2023-02-10T12:34:47;150811.34;;;-1.18;54.98
10127;BME280;13080;42.608;23.362;2023-02-10T12:37:25;150812.63;;;-1.17;56.49
10127;BME280;13080;42.608;23.362;2023-02-10T12:40:26;150840.94;;;-1.06;55.20
10127;BME280;13080;42.608;23.362;2023-02-10T12:43:00;150876.97;;;-0.92;55.36
10127;BME280;13080;42.608;23.362;2023-02-10T12:45:37;150865.41;;;-0.96;55.00
10127;BME280;13080;42.608;23.362;2023-02-10T12:48:18;150864.06;;;-0.97;56.26
10127;BME280;13080;42.608;23.362;2023-02-10T12:51:16;150885.97;;;-0.88;56.09
10127;BME280;13080;42.608;23.362;2023-02-10T12:53:50;150915.53;;;-0.76;54.52